Stockbridge, Wisconsin
Current Conditions -  °F | °C
As of 7:31 AM on Sunday 21 Dec 2014 (Local Time) from KOSH Reporting Station
Haze Haze  
Wind Chill: 24°   Ceiling: 900
Heat Index: 32°   Visibility: 4mi
Dew Point: 28°   Wind: 9mph
Humidity: 85%   Direction: 170°S
Pressure: 30.12"   Gusts: NA
Location:  44.07°N, 88.3°W
Report Text: KOSH 211331Z 17008KT 4SM BR OVC009 00/M02 A3012 RMK AO2 T00001022
Loading
Personal Weather Stations






























Interactive Weather Map New forecast layout! Learn more

10-Day Weather Forecast

Advertisements
Track Severe Weather on mobile